sensor_id;sensor_type;location;lat;lon;timestamp;P1;durP1;ratioP1;P2;durP2;ratioP2
47367;SDS011;34646;47.964;7.982;2023-08-21T00:09:58;1.47;;;1.20;;
47367;SDS011;34646;47.964;7.982;2023-08-21T00:22:00;1.13;;;0.87;;
47367;SDS011;34646;47.964;7.982;2023-08-21T00:34:01;0.90;;;0.80;;
47367;SDS011;34646;47.964;7.982;2023-08-21T00:46:02;1.13;;;0.80;;
47367;SDS011;34646;47.964;7.982;2023-08-21T00:58:05;1.50;;;0.98;;
47367;SDS011;34646;47.964;7.982;2023-08-21T01:10:15;1.30;;;1.07;;
47367;SDS011;34646;47.964;7.982;2023-08-21T01:16:26;1.10;;;0.82;;
47367;SDS011;34646;47.964;7.982;2023-08-21T01:22:36;1.48;;;1.00;;
47367;SDS011;34646;47.964;7.982;2023-08-21T01:28:37;1.00;;;0.90;;
47367;SDS011;34646;47.964;7.982;2023-08-21T01:40:39;1.37;;;1.00;;
47367;SDS011;34646;47.964;7.982;2023-08-21T01:46:40;1.25;;;1.00;;
47367;SDS011;34646;47.964;7.982;2023-08-21T01:52:42;1.00;;;0.90;;
47367;SDS011;34646;47.964;7.982;2023-08-21T02:04:44;1.27;;;1.03;;
47367;SDS011;34646;47.964;7.982;2023-08-21T02:16:51;1.00;;;0.90;;
47367;SDS011;34646;47.964;7.982;2023-08-21T02:28:53;2.40;;;1.10;;
47367;SDS011;34646;47.964;7.982;2023-08-21T02:40:54;1.07;;;0.90;;
47367;SDS011;34646;47.964;7.982;2023-08-21T02:52:55;1.30;;;1.00;;
47367;SDS011;34646;47.964;7.982;2023-08-21T02:58:56;1.40;;;1.10;;
47367;SDS011;34646;47.964;7.982;2023-08-21T03:10:57;1.47;;;1.10;;
47367;SDS011;34646;47.964;7.982;2023-08-21T03:22:59;1.00;;;0.83;;
47367;SDS011;34646;47.964;7.982;2023-08-21T03:29:00;1.20;;;1.08;;
47367;SDS011;34646;47.964;7.982;2023-08-21T03:35:01;1.02;;;0.93;;
47367;SDS011;34646;47.964;7.982;2023-08-21T03:47:05;1.50;;;1.05;;
47367;SDS011;34646;47.964;7.982;2023-08-21T03:53:10;1.35;;;1.00;;
47367;SDS011;34646;47.964;7.982;2023-08-21T04:05:11;1.30;;;1.10;;
47367;SDS011;34646;47.964;7.982;2023-08-21T04:17:13;1.37;;;1.10;;
47367;SDS011;34646;47.964;7.982;2023-08-21T04:29:14;1.20;;;0.87;;
47367;SDS011;34646;47.964;7.982;2023-08-21T04:41:17;1.10;;;0.98;;
47367;SDS011;34646;47.964;7.982;2023-08-21T04:47:23;1.50;;;1.20;;
47367;SDS011;34646;47.964;7.982;2023-08-21T04:53:29;1.10;;;0.73;;
47367;SDS011;34646;47.964;7.982;2023-08-21T04:59:31;1.25;;;1.10;;
47367;SDS011;34646;47.964;7.982;2023-08-21T05:05:33;1.52;;;1.20;;
47367;SDS011;34646;47.964;7.982;2023-08-21T05:17:34;1.23;;;0.97;;
47367;SDS011;34646;47.964;7.982;2023-08-21T05:29:39;1.30;;;1.00;;
47367;SDS011;34646;47.964;7.982;2023-08-21T05:41:41;1.27;;;1.10;;
47367;SDS011;34646;47.964;7.982;2023-08-21T05:53:42;1.30;;;1.10;;
47367;SDS011;34646;47.964;7.982;2023-08-21T06:05:45;1.30;;;1.10;;
47367;SDS011;34646;47.964;7.982;2023-08-21T06:11:47;1.40;;;1.10;;
47367;SDS011;34646;47.964;7.982;2023-08-21T06:23:49;1.67;;;1.10;;
47367;SDS011;34646;47.964;7.982;2023-08-21T06:35:51;1.30;;;1.05;;
47367;SDS011;34646;47.964;7.982;2023-08-21T06:47:53;1.30;;;1.00;;
47367;SDS011;34646;47.964;7.982;2023-08-21T06:59:54;1.50;;;1.00;;
47367;SDS011;34646;47.964;7.982;2023-08-21T07:11:56;1.40;;;1.08;;
47367;SDS011;34646;47.964;7.982;2023-08-21T07:23:57;1.30;;;1.00;;
47367;SDS011;34646;47.964;7.982;2023-08-21T07:36:00;1.20;;;0.90;;
47367;SDS011;34646;47.964;7.982;2023-08-21T07:42:02;1.20;;;1.10;;
47367;SDS011;34646;47.964;7.982;2023-08-21T07:54:05;1.40;;;1.13;;
47367;SDS011;34646;47.964;7.982;2023-08-21T08:06:13;1.73;;;1.13;;
47367;SDS011;34646;47.964;7.982;2023-08-21T08:18:15;1.70;;;1.20;;
47367;SDS011;34646;47.964;7.982;2023-08-21T08:30:16;1.10;;;1.00;;
47367;SDS011;34646;47.964;7.982;2023-08-21T08:42:17;1.30;;;1.10;;
47367;SDS011;34646;47.964;7.982;2023-08-21T08:54:21;1.42;;;1.20;;
47367;SDS011;34646;47.964;7.982;2023-08-21T09:00:22;1.58;;;1.10;;
47367;SDS011;34646;47.964;7.982;2023-08-21T09:06:24;1.13;;;1.00;;
47367;SDS011;34646;47.964;7.982;2023-08-21T09:12:25;1.30;;;1.10;;
47367;SDS011;34646;47.964;7.982;2023-08-21T09:24:27;1.27;;;1.10;;
47367;SDS011;34646;47.964;7.982;2023-08-21T09:36:28;2.13;;;1.20;;
47367;SDS011;34646;47.964;7.982;2023-08-21T09:48:29;1.40;;;1.13;;
47367;SDS011;34646;47.964;7.982;2023-08-21T09:54:31;1.42;;;1.00;;
47367;SDS011;34646;47.964;7.982;2023-08-21T10:00:34;3.72;;;2.20;;
47367;SDS011;34646;47.964;7.982;2023-08-21T10:06:35;10.75;;;4.03;;
47367;SDS011;34646;47.964;7.982;2023-08-21T10:12:36;6.60;;;4.13;;
47367;SDS011;34646;47.964;7.982;2023-08-21T10:24:39;5.45;;;3.50;;
47367;SDS011;34646;47.964;7.982;2023-08-21T10:37:25;5.97;;;2.90;;
47367;SDS011;34646;47.964;7.982;2023-08-21T10:49:44;5.45;;;3.00;;
47367;SDS011;34646;47.964;7.982;2023-08-21T10:55:57;4.05;;;3.20;;
47367;SDS011;34646;47.964;7.982;2023-08-21T11:02:02;4.20;;;3.25;;
47367;SDS011;34646;47.964;7.982;2023-08-21T11:08:03;4.78;;;3.00;;
47367;SDS011;34646;47.964;7.982;2023-08-21T11:20:04;4.37;;;3.27;;
47367;SDS011;34646;47.964;7.982;2023-08-21T11:26:06;4.40;;;3.47;;
47367;SDS011;34646;47.964;7.982;2023-08-21T11:32:10;4.55;;;3.55;;
47367;SDS011;34646;47.964;7.982;2023-08-21T11:38:16;5.10;;;3.63;;
47367;SDS011;34646;47.964;7.982;2023-08-21T11:44:18;6.35;;;3.30;;
47367;SDS011;34646;47.964;7.982;2023-08-21T11:50:20;4.47;;;3.60;;
47367;SDS011;34646;47.964;7.982;2023-08-21T12:02:25;3.43;;;3.13;;
47367;SDS011;34646;47.964;7.982;2023-08-21T12:08:27;4.45;;;4.00;;
47367;SDS011;34646;47.964;7.982;2023-08-21T12:20:28;4.20;;;3.80;;
47367;SDS011;34646;47.964;7.982;2023-08-21T12:26:29;4.15;;;3.63;;
47367;SDS011;34646;47.964;7.982;2023-08-21T12:38:30;4.63;;;4.10;;
47367;SDS011;34646;47.964;7.982;2023-08-21T12:44:32;3.90;;;3.45;;
47367;SDS011;34646;47.964;7.982;2023-08-21T12:50:33;4.65;;;3.53;;
47367;SDS011;34646;47.964;7.982;2023-08-21T13:02:34;4.40;;;3.60;;
47367;SDS011;34646;47.964;7.982;2023-08-21T13:14:36;4.33;;;3.20;;
47367;SDS011;34646;47.964;7.982;2023-08-21T13:26:37;3.37;;;3.07;;
47367;SDS011;34646;47.964;7.982;2023-08-21T13:38:38;4.13;;;3.00;;
47367;SDS011;34646;47.964;7.982;2023-08-21T13:50:39;4.10;;;3.10;;
47367;SDS011;34646;47.964;7.982;2023-08-21T13:56:41;3.67;;;3.10;;
47367;SDS011;34646;47.964;7.982;2023-08-21T14:08:42;4.47;;;3.40;;
47367;SDS011;34646;47.964;7.982;2023-08-21T14:20:44;3.67;;;3.00;;
47367;SDS011;34646;47.964;7.982;2023-08-21T14:32:45;3.67;;;3.20;;
47367;SDS011;34646;47.964;7.982;2023-08-21T14:44:46;3.00;;;2.70;;
47367;SDS011;34646;47.964;7.982;2023-08-21T14:56:47;2.83;;;2.57;;
47367;SDS011;34646;47.964;7.982;2023-08-21T15:08:49;3.27;;;2.83;;
47367;SDS011;34646;47.964;7.982;2023-08-21T15:20:51;2.93;;;2.60;;
47367;SDS011;34646;47.964;7.982;2023-08-21T15:32:52;3.00;;;2.70;;
47367;SDS011;34646;47.964;7.982;2023-08-21T15:44:53;3.20;;;2.90;;
47367;SDS011;34646;47.964;7.982;2023-08-21T15:56:54;3.10;;;2.63;;
47367;SDS011;34646;47.964;7.982;2023-08-21T16:08:56;3.20;;;2.43;;
47367;SDS011;34646;47.964;7.982;2023-08-21T16:20:57;2.87;;;2.50;;
47367;SDS011;34646;47.964;7.982;2023-08-21T16:26:59;3.83;;;2.75;;
47367;SDS011;34646;47.964;7.982;2023-08-21T16:39:02;2.95;;;2.63;;
47367;SDS011;34646;47.964;7.982;2023-08-21T16:45:03;3.08;;;2.72;;
47367;SDS011;34646;47.964;7.982;2023-08-21T16:51:04;2.65;;;2.45;;
47367;SDS011;34646;47.964;7.982;2023-08-21T17:03:05;3.10;;;2.80;;
47367;SDS011;34646;47.964;7.982;2023-08-21T17:09:06;2.70;;;2.50;;
47367;SDS011;34646;47.964;7.982;2023-08-21T17:15:07;2.38;;;2.15;;
47367;SDS011;34646;47.964;7.982;2023-08-21T17:21:08;3.28;;;2.50;;
47367;SDS011;34646;47.964;7.982;2023-08-21T17:33:10;3.30;;;2.63;;
47367;SDS011;34646;47.964;7.982;2023-08-21T17:45:11;2.33;;;2.13;;
47367;SDS011;34646;47.964;7.982;2023-08-21T17:51:12;2.30;;;2.10;;
47367;SDS011;34646;47.964;7.982;2023-08-21T17:57:13;2.72;;;2.35;;
47367;SDS011;34646;47.964;7.982;2023-08-21T18:09:15;2.83;;;2.43;;
47367;SDS011;34646;47.964;7.982;2023-08-21T18:15:17;2.58;;;2.28;;
47367;SDS011;34646;47.964;7.982;2023-08-21T18:27:20;3.10;;;2.60;;
47367;SDS011;34646;47.964;7.982;2023-08-21T18:39:21;2.83;;;2.47;;
47367;SDS011;34646;47.964;7.982;2023-08-21T18:51:23;2.70;;;2.30;;
47367;SDS011;34646;47.964;7.982;2023-08-21T18:57:23;2.63;;;2.10;;
47367;SDS011;34646;47.964;7.982;2023-08-21T19:09:25;2.20;;;2.00;;
47367;SDS011;34646;47.964;7.982;2023-08-21T19:15:27;2.55;;;2.10;;
47367;SDS011;34646;47.964;7.982;2023-08-21T19:21:28;2.90;;;2.50;;
47367;SDS011;34646;47.964;7.982;2023-08-21T19:33:30;2.27;;;2.07;;
47367;SDS011;34646;47.964;7.982;2023-08-21T19:39:31;2.47;;;2.28;;
47367;SDS011;34646;47.964;7.982;2023-08-21T19:45:32;2.40;;;2.20;;
47367;SDS011;34646;47.964;7.982;2023-08-21T19:57:34;2.60;;;2.20;;
47367;SDS011;34646;47.964;7.982;2023-08-21T20:09:35;2.67;;;2.03;;
47367;SDS011;34646;47.964;7.982;2023-08-21T20:15:39;2.40;;;2.10;;
47367;SDS011;34646;47.964;7.982;2023-08-21T20:27:41;1.83;;;1.70;;
47367;SDS011;34646;47.964;7.982;2023-08-21T20:39:42;3.30;;;2.17;;
47367;SDS011;34646;47.964;7.982;2023-08-21T20:45:43;2.10;;;1.85;;
47367;SDS011;34646;47.964;7.982;2023-08-21T20:57:44;2.33;;;2.13;;
47367;SDS011;34646;47.964;7.982;2023-08-21T21:03:47;2.33;;;2.00;;
47367;SDS011;34646;47.964;7.982;2023-08-21T21:15:48;2.47;;;2.17;;
47367;SDS011;34646;47.964;7.982;2023-08-21T21:21:49;2.10;;;1.90;;
47367;SDS011;34646;47.964;7.982;2023-08-21T21:27:50;2.10;;;1.90;;
47367;SDS011;34646;47.964;7.982;2023-08-21T21:39:53;2.50;;;2.30;;
47367;SDS011;34646;47.964;7.982;2023-08-21T21:51:57;2.15;;;1.90;;
47367;SDS011;34646;47.964;7.982;2023-08-21T22:03:58;2.50;;;1.90;;
47367;SDS011;34646;47.964;7.982;2023-08-21T22:15:59;1.73;;;1.60;;
47367;SDS011;34646;47.964;7.982;2023-08-21T22:22:01;2.92;;;2.20;;
47367;SDS011;34646;47.964;7.982;2023-08-21T22:28:03;2.30;;;2.10;;
47367;SDS011;34646;47.964;7.982;2023-08-21T22:34:04;2.30;;;2.00;;
47367;SDS011;34646;47.964;7.982;2023-08-21T22:46:06;2.13;;;1.92;;
47367;SDS011;34646;47.964;7.982;2023-08-21T22:58:07;1.87;;;1.70;;
47367;SDS011;34646;47.964;7.982;2023-08-21T23:04:08;2.08;;;1.80;;
47367;SDS011;34646;47.964;7.982;2023-08-21T23:10:09;2.15;;;1.95;;
47367;SDS011;34646;47.964;7.982;2023-08-21T23:16:10;1.95;;;1.75;;
47367;SDS011;34646;47.964;7.982;2023-08-21T23:28:11;2.10;;;1.80;;
47367;SDS011;34646;47.964;7.982;2023-08-21T23:34:12;2.40;;;2.00;;
47367;SDS011;34646;47.964;7.982;2023-08-21T23:40:12;1.85;;;1.67;;
47367;SDS011;34646;47.964;7.982;2023-08-21T23:46:16;2.03;;;1.70;;
47367;SDS011;34646;47.964;7.982;2023-08-21T23:58:17;2.67;;;1.80;;
